sensor_id;sensor_type;location;lat;lon;timestamp;P1;durP1;ratioP1;P2;durP2;ratioP2
75916;SDS011;64595;50.148;14.334;2023-07-28T00:00:49;8.63;;;5.05;;
75916;SDS011;64595;50.148;14.334;2023-07-28T00:03:17;7.75;;;4.93;;
75916;SDS011;64595;50.148;14.334;2023-07-28T00:05:43;6.05;;;4.32;;
75916;SDS011;64595;50.148;14.334;2023-07-28T00:08:08;7.30;;;5.25;;
75916;SDS011;64595;50.148;14.334;2023-07-28T00:10:39;6.38;;;4.18;;
75916;SDS011;64595;50.148;14.334;2023-07-28T00:13:05;12.07;;;5.10;;
75916;SDS011;64595;50.148;14.334;2023-07-28T00:15:31;5.45;;;4.78;;
75916;SDS011;64595;50.148;14.334;2023-07-28T00:17:57;5.82;;;4.35;;
75916;SDS011;64595;50.148;14.334;2023-07-28T00:20:22;5.20;;;4.03;;
75916;SDS011;64595;50.148;14.334;2023-07-28T00:22:48;6.28;;;4.40;;
75916;SDS011;64595;50.148;14.334;2023-07-28T00:25:13;7.85;;;4.70;;
75916;SDS011;64595;50.148;14.334;2023-07-28T00:27:39;7.72;;;5.32;;
75916;SDS011;64595;50.148;14.334;2023-07-28T00:30:04;6.72;;;5.35;;
75916;SDS011;64595;50.148;14.334;2023-07-28T00:32:32;9.02;;;5.47;;
75916;SDS011;64595;50.148;14.334;2023-07-28T00:34:57;7.90;;;5.50;;
75916;SDS011;64595;50.148;14.334;2023-07-28T00:37:23;6.68;;;4.95;;
75916;SDS011;64595;50.148;14.334;2023-07-28T00:39:48;7.25;;;5.53;;
75916;SDS011;64595;50.148;14.334;2023-07-28T00:42:14;9.48;;;6.45;;
75916;SDS011;64595;50.148;14.334;2023-07-28T00:44:39;8.10;;;6.25;;
75916;SDS011;64595;50.148;14.334;2023-07-28T00:47:05;7.95;;;6.20;;
75916;SDS011;64595;50.148;14.334;2023-07-28T00:49:32;6.70;;;5.65;;
75916;SDS011;64595;50.148;14.334;2023-07-28T00:51:57;6.53;;;5.32;;
75916;SDS011;64595;50.148;14.334;2023-07-28T00:54:22;7.82;;;6.03;;
75916;SDS011;64595;50.148;14.334;2023-07-28T00:56:48;8.68;;;5.97;;
75916;SDS011;64595;50.148;14.334;2023-07-28T00:59:14;6.85;;;5.85;;
75916;SDS011;64595;50.148;14.334;2023-07-28T01:01:40;8.38;;;6.55;;
75916;SDS011;64595;50.148;14.334;2023-07-28T01:04:05;7.35;;;6.40;;
75916;SDS011;64595;50.148;14.334;2023-07-28T01:06:35;7.75;;;6.18;;
75916;SDS011;64595;50.148;14.334;2023-07-28T01:09:03;8.25;;;6.47;;
75916;SDS011;64595;50.148;14.334;2023-07-28T01:11:31;8.90;;;6.60;;
75916;SDS011;64595;50.148;14.334;2023-07-28T01:13:56;7.53;;;6.13;;
75916;SDS011;64595;50.148;14.334;2023-07-28T01:16:22;7.90;;;6.15;;
75916;SDS011;64595;50.148;14.334;2023-07-28T01:18:48;7.95;;;6.32;;
75916;SDS011;64595;50.148;14.334;2023-07-28T01:21:14;8.30;;;7.10;;
75916;SDS011;64595;50.148;14.334;2023-07-28T01:23:48;8.60;;;7.10;;
75916;SDS011;64595;50.148;14.334;2023-07-28T01:26:26;8.88;;;7.38;;
75916;SDS011;64595;50.148;14.334;2023-07-28T01:28:55;10.32;;;7.32;;
75916;SDS011;64595;50.148;14.334;2023-07-28T01:31:21;11.52;;;7.43;;
75916;SDS011;64595;50.148;14.334;2023-07-28T01:33:46;8.05;;;6.63;;
75916;SDS011;64595;50.148;14.334;2023-07-28T01:36:11;10.23;;;7.15;;
75916;SDS011;64595;50.148;14.334;2023-07-28T01:38:37;9.98;;;7.25;;
75916;SDS011;64595;50.148;14.334;2023-07-28T01:41:02;8.75;;;7.38;;
75916;SDS011;64595;50.148;14.334;2023-07-28T01:43:29;8.32;;;6.50;;
75916;SDS011;64595;50.148;14.334;2023-07-28T01:45:55;9.25;;;5.97;;
75916;SDS011;64595;50.148;14.334;2023-07-28T01:48:20;8.77;;;6.75;;
75916;SDS011;64595;50.148;14.334;2023-07-28T01:50:46;9.63;;;5.25;;
75916;SDS011;64595;50.148;14.334;2023-07-28T01:53:11;7.25;;;6.25;;
75916;SDS011;64595;50.148;14.334;2023-07-28T01:55:37;7.43;;;5.93;;
75916;SDS011;64595;50.148;14.334;2023-07-28T01:58:02;7.47;;;6.38;;
75916;SDS011;64595;50.148;14.334;2023-07-28T02:00:29;8.75;;;6.53;;
75916;SDS011;64595;50.148;14.334;2023-07-28T02:02:54;9.50;;;7.10;;
75916;SDS011;64595;50.148;14.334;2023-07-28T02:05:20;8.82;;;6.57;;
75916;SDS011;64595;50.148;14.334;2023-07-28T02:07:45;9.35;;;6.13;;
75916;SDS011;64595;50.148;14.334;2023-07-28T02:10:11;8.02;;;6.50;;
75916;SDS011;64595;50.148;14.334;2023-07-28T02:12:36;7.30;;;6.10;;
75916;SDS011;64595;50.148;14.334;2023-07-28T02:15:02;9.27;;;6.90;;
75916;SDS011;64595;50.148;14.334;2023-07-28T02:17:30;9.00;;;6.70;;
75916;SDS011;64595;50.148;14.334;2023-07-28T02:19:55;8.40;;;7.07;;
75916;SDS011;64595;50.148;14.334;2023-07-28T02:22:21;8.82;;;6.95;;
75916;SDS011;64595;50.148;14.334;2023-07-28T02:24:46;9.48;;;7.05;;
75916;SDS011;64595;50.148;14.334;2023-07-28T02:27:11;12.07;;;7.10;;
75916;SDS011;64595;50.148;14.334;2023-07-28T02:29:37;9.75;;;7.10;;
75916;SDS011;64595;50.148;14.334;2023-07-28T02:32:02;12.77;;;6.70;;
75916;SDS011;64595;50.148;14.334;2023-07-28T02:34:30;10.55;;;7.35;;
75916;SDS011;64595;50.148;14.334;2023-07-28T02:36:55;12.45;;;7.40;;
75916;SDS011;64595;50.148;14.334;2023-07-28T02:39:22;9.82;;;7.18;;
75916;SDS011;64595;50.148;14.334;2023-07-28T02:41:47;10.73;;;7.80;;
75916;SDS011;64595;50.148;14.334;2023-07-28T02:44:13;13.60;;;9.20;;
75916;SDS011;64595;50.148;14.334;2023-07-28T02:46:38;13.63;;;7.68;;
75916;SDS011;64595;50.148;14.334;2023-07-28T02:49:04;12.02;;;7.95;;
75916;SDS011;64595;50.148;14.334;2023-07-28T02:51:31;11.88;;;7.75;;
75916;SDS011;64595;50.148;14.334;2023-07-28T02:53:56;12.40;;;7.47;;
75916;SDS011;64595;50.148;14.334;2023-07-28T02:56:22;14.45;;;8.45;;
75916;SDS011;64595;50.148;14.334;2023-07-28T02:58:47;12.88;;;7.97;;
75916;SDS011;64595;50.148;14.334;2023-07-28T03:01:13;12.50;;;8.15;;
75916;SDS011;64595;50.148;14.334;2023-07-28T03:03:39;10.00;;;8.10;;
75916;SDS011;64595;50.148;14.334;2023-07-28T03:06:04;9.50;;;7.22;;
75916;SDS011;64595;50.148;14.334;2023-07-28T03:08:31;10.02;;;7.80;;
75916;SDS011;64595;50.148;14.334;2023-07-28T03:10:56;11.55;;;8.30;;
75916;SDS011;64595;50.148;14.334;2023-07-28T03:13:22;10.63;;;7.20;;
75916;SDS011;64595;50.148;14.334;2023-07-28T03:15:47;11.25;;;8.50;;
75916;SDS011;64595;50.148;14.334;2023-07-28T03:18:13;10.77;;;6.93;;
75916;SDS011;64595;50.148;14.334;2023-07-28T03:20:38;10.07;;;6.90;;
75916;SDS011;64595;50.148;14.334;2023-07-28T03:23:04;9.32;;;6.60;;
75916;SDS011;64595;50.148;14.334;2023-07-28T03:25:30;8.60;;;7.13;;
75916;SDS011;64595;50.148;14.334;2023-07-28T03:27:56;11.05;;;7.85;;
75916;SDS011;64595;50.148;14.334;2023-07-28T03:30:21;10.70;;;7.68;;
75916;SDS011;64595;50.148;14.334;2023-07-28T03:32:47;12.18;;;8.32;;
75916;SDS011;64595;50.148;14.334;2023-07-28T03:35:12;10.40;;;8.20;;
75916;SDS011;64595;50.148;14.334;2023-07-28T03:37:41;9.95;;;7.35;;
75916;SDS011;64595;50.148;14.334;2023-07-28T03:40:07;9.15;;;7.00;;
75916;SDS011;64595;50.148;14.334;2023-07-28T03:42:34;15.23;;;7.93;;
75916;SDS011;64595;50.148;14.334;2023-07-28T03:44:59;10.57;;;8.40;;
75916;SDS011;64595;50.148;14.334;2023-07-28T03:47:25;8.38;;;7.28;;
75916;SDS011;64595;50.148;14.334;2023-07-28T03:49:50;9.10;;;7.88;;
75916;SDS011;64595;50.148;14.334;2023-07-28T03:52:16;13.88;;;7.90;;
75916;SDS011;64595;50.148;14.334;2023-07-28T03:54:41;10.05;;;7.45;;
75916;SDS011;64595;50.148;14.334;2023-07-28T03:57:08;11.38;;;7.65;;
75916;SDS011;64595;50.148;14.334;2023-07-28T03:59:35;13.45;;;7.75;;
75916;SDS011;64595;50.148;14.334;2023-07-28T04:02:01;12.90;;;7.53;;
75916;SDS011;64595;50.148;14.334;2023-07-28T04:04:26;10.73;;;7.35;;
75916;SDS011;64595;50.148;14.334;2023-07-28T04:06:52;8.52;;;6.35;;
75916;SDS011;64595;50.148;14.334;2023-07-28T04:09:17;10.43;;;6.38;;
75916;SDS011;64595;50.148;14.334;2023-07-28T04:11:43;11.07;;;7.32;;
75916;SDS011;64595;50.148;14.334;2023-07-28T04:14:08;9.50;;;7.47;;
75916;SDS011;64595;50.148;14.334;2023-07-28T04:16:38;8.65;;;7.35;;
75916;SDS011;64595;50.148;14.334;2023-07-28T04:19:03;11.60;;;7.20;;
75916;SDS011;64595;50.148;14.334;2023-07-28T04:21:29;8.40;;;7.32;;
75916;SDS011;64595;50.148;14.334;2023-07-28T04:23:54;10.20;;;6.82;;
75916;SDS011;64595;50.148;14.334;2023-07-28T04:26:20;9.60;;;5.90;;
75916;SDS011;64595;50.148;14.334;2023-07-28T04:28:47;9.98;;;7.30;;
75916;SDS011;64595;50.148;14.334;2023-07-28T04:31:12;8.63;;;7.53;;
75916;SDS011;64595;50.148;14.334;2023-07-28T04:33:39;9.75;;;6.78;;
75916;SDS011;64595;50.148;14.334;2023-07-28T04:36:06;8.52;;;6.32;;
75916;SDS011;64595;50.148;14.334;2023-07-28T04:38:32;9.57;;;6.82;;
75916;SDS011;64595;50.148;14.334;2023-07-28T04:40:57;8.45;;;6.38;;
75916;SDS011;64595;50.148;14.334;2023-07-28T04:43:23;8.48;;;6.88;;
75916;SDS011;64595;50.148;14.334;2023-07-28T04:45:48;10.98;;;7.20;;
75916;SDS011;64595;50.148;14.334;2023-07-28T04:48:14;7.68;;;6.45;;
75916;SDS011;64595;50.148;14.334;2023-07-28T04:50:40;9.10;;;6.72;;
75916;SDS011;64595;50.148;14.334;2023-07-28T04:53:06;7.57;;;6.28;;
75916;SDS011;64595;50.148;14.334;2023-07-28T04:55:31;8.05;;;6.25;;
75916;SDS011;64595;50.148;14.334;2023-07-28T04:57:57;8.50;;;6.30;;
75916;SDS011;64595;50.148;14.334;2023-07-28T05:00:22;8.93;;;6.05;;
75916;SDS011;64595;50.148;14.334;2023-07-28T05:02:48;8.98;;;6.30;;
75916;SDS011;64595;50.148;14.334;2023-07-28T05:05:13;7.20;;;6.32;;
75916;SDS011;64595;50.148;14.334;2023-07-28T05:07:40;8.45;;;6.25;;
75916;SDS011;64595;50.148;14.334;2023-07-28T05:10:06;7.82;;;5.53;;
75916;SDS011;64595;50.148;14.334;2023-07-28T05:12:32;6.60;;;5.45;;
75916;SDS011;64595;50.148;14.334;2023-07-28T05:14:58;6.30;;;5.15;;
75916;SDS011;64595;50.148;14.334;2023-07-28T05:17:23;9.48;;;6.05;;
75916;SDS011;64595;50.148;14.334;2023-07-28T05:19:49;6.10;;;4.88;;
75916;SDS011;64595;50.148;14.334;2023-07-28T05:22:14;8.10;;;5.50;;
75916;SDS011;64595;50.148;14.334;2023-07-28T05:24:41;7.90;;;4.90;;
75916;SDS011;64595;50.148;14.334;2023-07-28T05:27:07;6.60;;;4.45;;
75916;SDS011;64595;50.148;14.334;2023-07-28T05:29:39;8.18;;;4.97;;
75916;SDS011;64595;50.148;14.334;2023-07-28T05:32:05;5.60;;;4.82;;
75916;SDS011;64595;50.148;14.334;2023-07-28T05:34:31;6.22;;;4.78;;
75916;SDS011;64595;50.148;14.334;2023-07-28T05:36:57;6.32;;;4.63;;
75916;SDS011;64595;50.148;14.334;2023-07-28T05:39:23;6.10;;;4.85;;
75916;SDS011;64595;50.148;14.334;2023-07-28T05:41:49;4.97;;;4.13;;
75916;SDS011;64595;50.148;14.334;2023-07-28T05:44:18;6.38;;;4.45;;
75916;SDS011;64595;50.148;14.334;2023-07-28T05:46:43;5.40;;;4.43;;
75916;SDS011;64595;50.148;14.334;2023-07-28T05:49:09;5.60;;;3.97;;
75916;SDS011;64595;50.148;14.334;2023-07-28T05:51:34;6.32;;;4.90;;
75916;SDS011;64595;50.148;14.334;2023-07-28T05:54:00;5.82;;;4.78;;
75916;SDS011;64595;50.148;14.334;2023-07-28T05:56:25;5.25;;;4.45;;
75916;SDS011;64595;50.148;14.334;2023-07-28T05:58:52;5.63;;;4.82;;
75916;SDS011;64595;50.148;14.334;2023-07-28T06:01:18;6.03;;;4.35;;
75916;SDS011;64595;50.148;14.334;2023-07-28T06:03:43;5.63;;;4.63;;
75916;SDS011;64595;50.148;14.334;2023-07-28T06:06:09;5.40;;;4.63;;
75916;SDS011;64595;50.148;14.334;2023-07-28T06:08:34;5.30;;;4.80;;
75916;SDS011;64595;50.148;14.334;2023-07-28T06:11:00;5.90;;;5.10;;
75916;SDS011;64595;50.148;14.334;2023-07-28T06:13:25;6.00;;;4.50;;
75916;SDS011;64595;50.148;14.334;2023-07-28T06:15:54;4.57;;;4.07;;
75916;SDS011;64595;50.148;14.334;2023-07-28T06:18:19;4.70;;;4.13;;
75916;SDS011;64595;50.148;14.334;2023-07-28T06:20:44;6.35;;;4.40;;
75916;SDS011;64595;50.148;14.334;2023-07-28T06:23:10;4.90;;;4.40;;
75916;SDS011;64595;50.148;14.334;2023-07-28T06:25:35;4.85;;;4.35;;
75916;SDS011;64595;50.148;14.334;2023-07-28T06:28:01;7.10;;;4.53;;
75916;SDS011;64595;50.148;14.334;2023-07-28T06:30:26;6.82;;;4.90;;
75916;SDS011;64595;50.148;14.334;2023-07-28T06:32:53;4.55;;;4.07;;
75916;SDS011;64595;50.148;14.334;2023-07-28T06:35:19;5.82;;;4.38;;
75916;SDS011;64595;50.148;14.334;2023-07-28T06:37:44;5.43;;;3.83;;
75916;SDS011;64595;50.148;14.334;2023-07-28T06:40:10;4.10;;;3.60;;
75916;SDS011;64595;50.148;14.334;2023-07-28T06:42:35;3.90;;;3.50;;
75916;SDS011;64595;50.148;14.334;2023-07-28T06:45:02;5.10;;;4.10;;
75916;SDS011;64595;50.148;14.334;2023-07-28T06:47:27;4.55;;;4.00;;
75916;SDS011;64595;50.148;14.334;2023-07-28T06:49:54;4.90;;;3.90;;
75916;SDS011;64595;50.148;14.334;2023-07-28T06:52:20;3.83;;;3.38;;
75916;SDS011;64595;50.148;14.334;2023-07-28T06:54:46;4.22;;;3.42;;
75916;SDS011;64595;50.148;14.334;2023-07-28T06:57:11;5.05;;;3.90;;
75916;SDS011;64595;50.148;14.334;2023-07-28T06:59:37;4.53;;;3.85;;
75916;SDS011;64595;50.148;14.334;2023-07-28T07:02:02;6.97;;;3.47;;
75916;SDS011;64595;50.148;14.334;2023-07-28T07:04:28;6.22;;;4.32;;
75916;SDS011;64595;50.148;14.334;2023-07-28T07:06:55;4.22;;;3.75;;
75916;SDS011;64595;50.148;14.334;2023-07-28T07:09:20;5.05;;;4.55;;
75916;SDS011;64595;50.148;14.334;2023-07-28T07:11:46;3.92;;;3.53;;
75916;SDS011;64595;50.148;14.334;2023-07-28T07:14:11;4.20;;;3.80;;
75916;SDS011;64595;50.148;14.334;2023-07-28T07:16:36;4.40;;;3.45;;
75916;SDS011;64595;50.148;14.334;2023-07-28T07:19:03;4.40;;;3.53;;
75916;SDS011;64595;50.148;14.334;2023-07-28T07:21:28;5.05;;;3.88;;
75916;SDS011;64595;50.148;14.334;2023-07-28T07:23:55;3.65;;;3.30;;
75916;SDS011;64595;50.148;14.334;2023-07-28T07:26:21;3.90;;;3.33;;
75916;SDS011;64595;50.148;14.334;2023-07-28T07:28:46;4.55;;;3.35;;
75916;SDS011;64595;50.148;14.334;2023-07-28T07:31:12;3.75;;;3.35;;
75916;SDS011;64595;50.148;14.334;2023-07-28T07:33:37;5.55;;;3.85;;
75916;SDS011;64595;50.148;14.334;2023-07-28T07:36:03;3.72;;;3.05;;
75916;SDS011;64595;50.148;14.334;2023-07-28T07:38:29;4.25;;;2.92;;
75916;SDS011;64595;50.148;14.334;2023-07-28T07:40:56;3.85;;;3.22;;
75916;SDS011;64595;50.148;14.334;2023-07-28T07:43:22;3.42;;;3.13;;
75916;SDS011;64595;50.148;14.334;2023-07-28T07:45:47;3.30;;;3.00;;
75916;SDS011;64595;50.148;14.334;2023-07-28T07:48:13;4.80;;;3.35;;
75916;SDS011;64595;50.148;14.334;2023-07-28T07:50:38;3.42;;;3.13;;
75916;SDS011;64595;50.148;14.334;2023-07-28T07:53:04;4.93;;;3.42;;
75916;SDS011;64595;50.148;14.334;2023-07-28T07:55:29;3.63;;;3.33;;
75916;SDS011;64595;50.148;14.334;2023-07-28T07:57:56;3.75;;;3.35;;
75916;SDS011;64595;50.148;14.334;2023-07-28T08:00:22;5.28;;;2.90;;
75916;SDS011;64595;50.148;14.334;2023-07-28T08:02:47;3.47;;;3.17;;
75916;SDS011;64595;50.148;14.334;2023-07-28T08:05:13;2.92;;;2.60;;
75916;SDS011;64595;50.148;14.334;2023-07-28T08:07:38;3.05;;;2.75;;
75916;SDS011;64595;50.148;14.334;2023-07-28T08:10:04;3.20;;;2.70;;
75916;SDS011;64595;50.148;14.334;2023-07-28T08:12:30;3.10;;;2.70;;
75916;SDS011;64595;50.148;14.334;2023-07-28T08:14:57;3.33;;;2.65;;
75916;SDS011;64595;50.148;14.334;2023-07-28T08:17:22;3.83;;;2.50;;
75916;SDS011;64595;50.148;14.334;2023-07-28T08:19:48;5.13;;;2.20;;
75916;SDS011;64595;50.148;14.334;2023-07-28T08:22:13;3.35;;;2.60;;
75916;SDS011;64595;50.148;14.334;2023-07-28T08:24:39;3.28;;;2.97;;
75916;SDS011;64595;50.148;14.334;2023-07-28T08:27:04;5.00;;;2.72;;
75916;SDS011;64595;50.148;14.334;2023-07-28T08:29:30;3.67;;;3.08;;
75916;SDS011;64595;50.148;14.334;2023-07-28T08:31:57;4.15;;;3.30;;
75916;SDS011;64595;50.148;14.334;2023-07-28T08:34:23;4.07;;;2.80;;
75916;SDS011;64595;50.148;14.334;2023-07-28T08:36:48;3.55;;;2.63;;
75916;SDS011;64595;50.148;14.334;2023-07-28T08:39:16;2.90;;;2.60;;
75916;SDS011;64595;50.148;14.334;2023-07-28T08:41:42;2.92;;;2.40;;
75916;SDS011;64595;50.148;14.334;2023-07-28T08:44:08;3.05;;;2.53;;
75916;SDS011;64595;50.148;14.334;2023-07-28T08:46:33;3.05;;;2.50;;
75916;SDS011;64595;50.148;14.334;2023-07-28T08:49:00;2.63;;;2.30;;
75916;SDS011;64595;50.148;14.334;2023-07-28T08:51:25;3.20;;;2.38;;
75916;SDS011;64595;50.148;14.334;2023-07-28T08:53:51;3.15;;;2.55;;
75916;SDS011;64595;50.148;14.334;2023-07-28T08:56:16;3.63;;;2.33;;
75916;SDS011;64595;50.148;14.334;2023-07-28T08:58:42;3.25;;;2.60;;
75916;SDS011;64595;50.148;14.334;2023-07-28T09:01:07;2.65;;;2.28;;
75916;SDS011;64595;50.148;14.334;2023-07-28T09:03:33;3.10;;;2.33;;
75916;SDS011;64595;50.148;14.334;2023-07-28T09:06:00;4.78;;;2.85;;
75916;SDS011;64595;50.148;14.334;2023-07-28T09:08:26;5.22;;;3.03;;
75916;SDS011;64595;50.148;14.334;2023-07-28T09:10:51;5.25;;;3.30;;
75916;SDS011;64595;50.148;14.334;2023-07-28T09:13:17;4.32;;;3.63;;
75916;SDS011;64595;50.148;14.334;2023-07-28T09:15:43;5.88;;;3.22;;
75916;SDS011;64595;50.148;14.334;2023-07-28T09:18:09;5.97;;;3.95;;
75916;SDS011;64595;50.148;14.334;2023-07-28T09:20:35;3.22;;;2.92;;
75916;SDS011;64595;50.148;14.334;2023-07-28T09:23:03;4.72;;;2.78;;
75916;SDS011;64595;50.148;14.334;2023-07-28T09:27:54;3.78;;;2.50;;
75916;SDS011;64595;50.148;14.334;2023-07-28T09:30:19;4.10;;;2.53;;
75916;SDS011;64595;50.148;14.334;2023-07-28T09:32:46;3.00;;;2.40;;
75916;SDS011;64595;50.148;14.334;2023-07-28T09:35:13;4.32;;;2.80;;
75916;SDS011;64595;50.148;14.334;2023-07-28T09:37:39;3.63;;;2.15;;
75916;SDS011;64595;50.148;14.334;2023-07-28T09:40:08;4.45;;;2.30;;
75916;SDS011;64595;50.148;14.334;2023-07-28T09:42:34;3.20;;;2.20;;
75916;SDS011;64595;50.148;14.334;2023-07-28T09:45:00;2.70;;;2.10;;
75916;SDS011;64595;50.148;14.334;2023-07-28T09:47:26;2.40;;;2.03;;
75916;SDS011;64595;50.148;14.334;2023-07-28T09:49:52;2.45;;;1.80;;
75916;SDS011;64595;50.148;14.334;2023-07-28T09:52:18;2.10;;;1.65;;
75916;SDS011;64595;50.148;14.334;2023-07-28T09:54:45;7.85;;;1.90;;
75916;SDS011;64595;50.148;14.334;2023-07-28T09:57:16;2.65;;;1.80;;
75916;SDS011;64595;50.148;14.334;2023-07-28T09:59:46;2.63;;;1.80;;
75916;SDS011;64595;50.148;14.334;2023-07-28T10:02:12;6.10;;;3.25;;
75916;SDS011;64595;50.148;14.334;2023-07-28T10:04:38;2.38;;;1.70;;
75916;SDS011;64595;50.148;14.334;2023-07-28T10:07:04;6.57;;;1.65;;
75916;SDS011;64595;50.148;14.334;2023-07-28T10:09:30;2.00;;;1.65;;
75916;SDS011;64595;50.148;14.334;2023-07-28T10:11:56;2.80;;;1.63;;
75916;SDS011;64595;50.148;14.334;2023-07-28T10:14:26;3.90;;;1.52;;
75916;SDS011;64595;50.148;14.334;2023-07-28T10:16:52;4.03;;;1.70;;
75916;SDS011;64595;50.148;14.334;2023-07-28T10:19:19;4.75;;;1.65;;
75916;SDS011;64595;50.148;14.334;2023-07-28T10:21:45;1.92;;;1.50;;
75916;SDS011;64595;50.148;14.334;2023-07-28T10:24:11;1.85;;;1.30;;
75916;SDS011;64595;50.148;14.334;2023-07-28T10:26:37;2.85;;;1.60;;
75916;SDS011;64595;50.148;14.334;2023-07-28T10:29:10;1.40;;;1.20;;
75916;SDS011;64595;50.148;14.334;2023-07-28T10:31:38;1.50;;;1.23;;
75916;SDS011;64595;50.148;14.334;2023-07-28T10:34:15;2.10;;;1.45;;
75916;SDS011;64595;50.148;14.334;2023-07-28T10:36:43;2.83;;;1.52;;
75916;SDS011;64595;50.148;14.334;2023-07-28T10:39:12;4.47;;;1.55;;
75916;SDS011;64595;50.148;14.334;2023-07-28T10:41:38;2.13;;;1.70;;
75916;SDS011;64595;50.148;14.334;2023-07-28T10:44:05;2.00;;;1.33;;
75916;SDS011;64595;50.148;14.334;2023-07-28T10:46:34;1.80;;;1.30;;
75916;SDS011;64595;50.148;14.334;2023-07-28T10:49:04;2.72;;;1.40;;
75916;SDS011;64595;50.148;14.334;2023-07-28T10:51:30;2.00;;;1.40;;
75916;SDS011;64595;50.148;14.334;2023-07-28T10:53:55;2.53;;;1.27;;
75916;SDS011;64595;50.148;14.334;2023-07-28T10:56:21;3.85;;;1.60;;
75916;SDS011;64595;50.148;14.334;2023-07-28T10:58:48;4.22;;;1.60;;
75916;SDS011;64595;50.148;14.334;2023-07-28T11:01:21;2.83;;;1.40;;
75916;SDS011;64595;50.148;14.334;2023-07-28T11:03:46;2.20;;;1.50;;
75916;SDS011;64595;50.148;14.334;2023-07-28T11:06:13;2.70;;;1.63;;
75916;SDS011;64595;50.148;14.334;2023-07-28T11:08:39;2.35;;;1.33;;
75916;SDS011;64595;50.148;14.334;2023-07-28T11:11:04;2.55;;;1.40;;
75916;SDS011;64595;50.148;14.334;2023-07-28T11:13:31;1.40;;;1.30;;
75916;SDS011;64595;50.148;14.334;2023-07-28T11:15:57;2.47;;;1.33;;
75916;SDS011;64595;50.148;14.334;2023-07-28T11:18:24;2.67;;;1.70;;
75916;SDS011;64595;50.148;14.334;2023-07-28T11:20:50;1.92;;;1.40;;
75916;SDS011;64595;50.148;14.334;2023-07-28T11:23:17;1.88;;;1.40;;
75916;SDS011;64595;50.148;14.334;2023-07-28T11:28:08;5.72;;;2.20;;
75916;SDS011;64595;50.148;14.334;2023-07-28T11:30:35;2.60;;;1.35;;
75916;SDS011;64595;50.148;14.334;2023-07-28T11:33:02;1.60;;;1.30;;
75916;SDS011;64595;50.148;14.334;2023-07-28T11:35:28;2.78;;;1.50;;
75916;SDS011;64595;50.148;14.334;2023-07-28T11:37:53;2.03;;;1.40;;
75916;SDS011;64595;50.148;14.334;2023-07-28T11:40:21;4.68;;;1.50;;
75916;SDS011;64595;50.148;14.334;2023-07-28T11:42:50;2.40;;;1.50;;
75916;SDS011;64595;50.148;14.334;2023-07-28T11:45:17;1.80;;;1.50;;
75916;SDS011;64595;50.148;14.334;2023-07-28T11:50:21;2.05;;;1.30;;
75916;SDS011;64595;50.148;14.334;2023-07-28T11:52:50;2.42;;;1.73;;
75916;SDS011;64595;50.148;14.334;2023-07-28T11:55:16;2.67;;;1.90;;
75916;SDS011;64595;50.148;14.334;2023-07-28T11:57:43;3.28;;;1.63;;
75916;SDS011;64595;50.148;14.334;2023-07-28T12:00:09;2.65;;;1.60;;
75916;SDS011;64595;50.148;14.334;2023-07-28T12:02:35;1.83;;;1.35;;
75916;SDS011;64595;50.148;14.334;2023-07-28T12:05:01;1.83;;;1.42;;
75916;SDS011;64595;50.148;14.334;2023-07-28T12:07:27;2.45;;;1.30;;
75916;SDS011;64595;50.148;14.334;2023-07-28T12:09:53;1.52;;;1.25;;
75916;SDS011;64595;50.148;14.334;2023-07-28T12:12:20;2.88;;;1.15;;
75916;SDS011;64595;50.148;14.334;2023-07-28T12:14:48;1.55;;;1.20;;
75916;SDS011;64595;50.148;14.334;2023-07-28T12:17:14;1.88;;;1.50;;
75916;SDS011;64595;50.148;14.334;2023-07-28T12:19:42;3.10;;;1.50;;
75916;SDS011;64595;50.148;14.334;2023-07-28T12:22:20;2.75;;;1.27;;
75916;SDS011;64595;50.148;14.334;2023-07-28T12:24:45;1.75;;;1.20;;
75916;SDS011;64595;50.148;14.334;2023-07-28T12:27:10;2.55;;;1.27;;
75916;SDS011;64595;50.148;14.334;2023-07-28T12:29:36;3.03;;;1.92;;
75916;SDS011;64595;50.148;14.334;2023-07-28T12:32:03;2.03;;;1.30;;
75916;SDS011;64595;50.148;14.334;2023-07-28T12:34:29;1.80;;;1.20;;
75916;SDS011;64595;50.148;14.334;2023-07-28T12:36:55;1.77;;;0.98;;
75916;SDS011;64595;50.148;14.334;2023-07-28T12:39:20;1.83;;;1.15;;
75916;SDS011;64595;50.148;14.334;2023-07-28T12:41:46;1.30;;;1.08;;
75916;SDS011;64595;50.148;14.334;2023-07-28T12:44:12;2.75;;;1.20;;
75916;SDS011;64595;50.148;14.334;2023-07-28T12:46:37;2.03;;;1.10;;
75916;SDS011;64595;50.148;14.334;2023-07-28T12:49:04;2.50;;;1.45;;
75916;SDS011;64595;50.148;14.334;2023-07-28T12:51:30;2.20;;;1.40;;
75916;SDS011;64595;50.148;14.334;2023-07-28T12:53:55;1.77;;;1.30;;
75916;SDS011;64595;50.148;14.334;2023-07-28T12:56:20;2.22;;;1.25;;
75916;SDS011;64595;50.148;14.334;2023-07-28T12:58:46;2.15;;;1.05;;
75916;SDS011;64595;50.148;14.334;2023-07-28T13:01:12;1.58;;;0.90;;
75916;SDS011;64595;50.148;14.334;2023-07-28T13:03:37;1.70;;;1.10;;
75916;SDS011;64595;50.148;14.334;2023-07-28T13:06:04;5.55;;;1.60;;
75916;SDS011;64595;50.148;14.334;2023-07-28T13:08:30;1.35;;;1.10;;
75916;SDS011;64595;50.148;14.334;2023-07-28T13:10:55;1.42;;;1.10;;
75916;SDS011;64595;50.148;14.334;2023-07-28T13:13:21;2.13;;;1.15;;
75916;SDS011;64595;50.148;14.334;2023-07-28T13:15:46;1.30;;;1.13;;
75916;SDS011;64595;50.148;14.334;2023-07-28T13:18:12;1.58;;;1.13;;
75916;SDS011;64595;50.148;14.334;2023-07-28T13:20:37;1.38;;;1.20;;
75916;SDS011;64595;50.148;14.334;2023-07-28T13:23:04;2.42;;;1.30;;
75916;SDS011;64595;50.148;14.334;2023-07-28T13:25:29;1.20;;;1.10;;
75916;SDS011;64595;50.148;14.334;2023-07-28T13:27:56;1.70;;;1.40;;
75916;SDS011;64595;50.148;14.334;2023-07-28T13:30:22;1.88;;;1.40;;
75916;SDS011;64595;50.148;14.334;2023-07-28T13:32:48;1.70;;;1.20;;
75916;SDS011;64595;50.148;14.334;2023-07-28T13:35:16;1.95;;;1.30;;
75916;SDS011;64595;50.148;14.334;2023-07-28T13:37:43;1.38;;;1.20;;
75916;SDS011;64595;50.148;14.334;2023-07-28T13:40:11;2.65;;;1.35;;
75916;SDS011;64595;50.148;14.334;2023-07-28T13:42:36;1.90;;;1.45;;
75916;SDS011;64595;50.148;14.334;2023-07-28T13:45:04;1.83;;;1.50;;
75916;SDS011;64595;50.148;14.334;2023-07-28T13:47:32;1.65;;;1.33;;
75916;SDS011;64595;50.148;14.334;2023-07-28T13:49:58;3.20;;;1.20;;
75916;SDS011;64595;50.148;14.334;2023-07-28T13:52:25;1.58;;;1.00;;
75916;SDS011;64595;50.148;14.334;2023-07-28T13:54:51;1.50;;;1.05;;
75916;SDS011;64595;50.148;14.334;2023-07-28T13:57:18;1.27;;;1.17;;
75916;SDS011;64595;50.148;14.334;2023-07-28T14:02:09;2.20;;;1.40;;
75916;SDS011;64595;50.148;14.334;2023-07-28T14:04:35;1.70;;;1.25;;
75916;SDS011;64595;50.148;14.334;2023-07-28T14:07:00;1.60;;;1.23;;
75916;SDS011;64595;50.148;14.334;2023-07-28T14:09:26;2.13;;;1.50;;
75916;SDS011;64595;50.148;14.334;2023-07-28T14:11:52;1.88;;;1.40;;
75916;SDS011;64595;50.148;14.334;2023-07-28T14:14:18;1.27;;;1.10;;
75916;SDS011;64595;50.148;14.334;2023-07-28T14:16:44;2.38;;;1.20;;
75916;SDS011;64595;50.148;14.334;2023-07-28T14:19:09;1.70;;;1.30;;
75916;SDS011;64595;50.148;14.334;2023-07-28T14:21:35;3.70;;;1.30;;
75916;SDS011;64595;50.148;14.334;2023-07-28T14:24:00;2.40;;;1.50;;
75916;SDS011;64595;50.148;14.334;2023-07-28T14:26:27;2.88;;;1.40;;
75916;SDS011;64595;50.148;14.334;2023-07-28T14:28:53;2.17;;;1.40;;
75916;SDS011;64595;50.148;14.334;2023-07-28T14:31:20;2.85;;;1.52;;
75916;SDS011;64595;50.148;14.334;2023-07-28T14:33:45;1.52;;;1.10;;
75916;SDS011;64595;50.148;14.334;2023-07-28T14:36:11;4.90;;;1.30;;